首页
METAR-TAF:

METAR-TAF

机场 :

空军基地

Niederstetten, 德国

纬度: 49-24N, 经度: 009-58E, 海拔: 468米

当前天气观测

该预报发布于1小时和2分钟前的02:20 UTC
风速3节,风向东转东南
温度 11°C
湿度 94%
气压 1022 hPa
能见度10公里或以上
少量云层高于32000英尺
附近有雾

METAR: ETHN 170220Z 11003KT 9999 VCFG FEW320 11/10 Q1022 BLU+

时间: 05:22 (03:22 UTC)


TAF: 丢失

超过4000个机场的气象观测和天气预报(METAR&TAF报告)。

可查询的气象台以黄色和红色小点在地图上表示。

将鼠标移到小点上方,可查看气象台名称。

然后点击查看天气观测和预报。

如需切换地图:点击带黑十字的绿色按钮放大地图;点击带横线的绿色按钮缩小地图;或者点击绿色箭头查看邻近地区的地图。


METAR-TAF: